Lake Charles — WDF4884 — position and weather

sailwx.info

Track history (hours):
 
Tides and Currents Weather Stations Pressure Air Temp Water Temp Dewpoint Dewpoint Depression Visibility Wind Speed Wind Dir Waves Ship Positions

Lake Charles

Owner: Canal Barge Company, Inc., Belle Chasse, LA. More information available from US FCC via Universal Licensing System and Coast Guard Vessel Documentation Center.

Last reported at 2018-Feb-21 06:07 UTC. Time now 2018-Feb-21 15:43 UTC.
Position N 29°24' W 094°45'.

Length 23 m; draft 3 m.

Type: Tow > 200 m length. MMSI: 367456860.

Date/timePositionNaut miles runAvg speedWind from/ knotsBaromVisibWave heightAir tempDewpointWater temp
2018-Feb-21 06:07N 29°24' W 094°45'0 0.0
2018-Feb-21 03:11N 29°24' W 094°45'0 0.0
2018-Feb-21 02:50N 29°24' W 094°45'16 1.3
2018-Feb-20 14:49N 29°33' W 094°28'0 0.0
2018-Feb-20 14:22N 29°33' W 094°28'0 0.0
2018-Feb-20 14:00N 29°33' W 094°28'0 0.0
2018-Feb-20 13:30N 29°33' W 094°28'0 0.0
2018-Feb-20 13:00N 29°33' W 094°28'0 0.0
2018-Feb-20 12:30N 29°33' W 094°28'0 0.0
2018-Feb-20 11:59N 29°33' W 094°28'0 0.0
2018-Feb-20 11:29N 29°33' W 094°28'0 0.0
2018-Feb-20 10:59N 29°33' W 094°28'0 0.0
2018-Feb-20 10:29N 29°33' W 094°28'0 0.0
2018-Feb-20 09:59N 29°33' W 094°28'0 0.0
2018-Feb-20 09:30N 29°33' W 094°28'0 0.0
2018-Feb-20 08:58N 29°33' W 094°28'0 0.0
2018-Feb-20 07:41N 29°33' W 094°28'0 0.0
2018-Feb-20 07:30N 29°33' W 094°28'0 0.0
2018-Feb-20 06:59N 29°33' W 094°28'0 0.0
2018-Feb-20 06:26N 29°33' W 094°28'0 0.0
2018-Feb-20 05:59N 29°33' W 094°28'0 0.0
2018-Feb-20 04:47N 29°33' W 094°28'0 0.0
2018-Feb-20 04:14N 29°33' W 094°29'0 0.0
2018-Feb-20 03:54N 29°33' W 094°29'0 0.0
2018-Feb-20 03:28N 29°33' W 094°29'0 0.0
2018-Feb-19 23:17N 29°33' W 094°29'0 0.0
2018-Feb-19 22:36N 29°33' W 094°29'0 0.0
2018-Feb-19 22:20N 29°33' W 094°29'0 0.0
2018-Feb-19 21:58N 29°33' W 094°29'3 2.9
2018-Feb-19 20:46N 29°34' W 094°25'2 5.1
2018-Feb-19 20:18N 29°36' W 094°23'0 1.0
2018-Feb-19 20:00N 29°36' W 094°23'0 0.0
2018-Feb-19 19:30N 29°36' W 094°23'0 0.0
2018-Feb-19 19:00N 29°36' W 094°23'1 2.6
2018-Feb-19 18:25N 29°37' W 094°21'0 0.0
2018-Feb-19 17:10N 29°37' W 094°21'0 0.0
2018-Feb-19 16:54N 29°37' W 094°21'0 0.1
2018-Feb-19 16:22N 29°37' W 094°21'2 5.7
2018-Feb-19 16:00N 29°38' W 094°19'3 6.8
2018-Feb-19 15:30N 29°39' W 094°16'3 6.5
2018-Feb-19 15:00N 29°41' W 094°12'4 7.2
2018-Feb-19 14:30N 29°42' W 094°08'0 0.1
2018-Feb-19 14:00N 29°42' W 094°08'3 6.5
2018-Feb-19 13:30N 29°44' W 094°06'4 7.4
2018-Feb-19 13:00N 29°46' W 094°02'3 6.4
2018-Feb-19 12:30N 29°49' W 093°60'0 0.0
2018-Feb-19 12:00N 29°49' W 093°60'0 0.0
2018-Feb-19 11:30N 29°49' W 093°60'0 0.0
2018-Feb-19 11:00N 29°49' W 093°60'0 0.0
2018-Feb-19 10:30N 29°49' W 093°60'0 0.0
2018-Feb-19 10:00N 29°49' W 093°60'0 0.0
2018-Feb-19 09:29N 29°49' W 093°60'0 0.0
2018-Feb-19 09:00N 29°49' W 093°60'0 0.0
2018-Feb-19 08:30N 29°49' W 093°60'0 0.0
2018-Feb-19 08:00N 29°49' W 093°60'0 0.0
2018-Feb-19 07:30N 29°49' W 093°60'0 0.0
2018-Feb-19 07:00N 29°49' W 093°60'0 0.0
2018-Feb-19 06:28N 29°49' W 093°60'0 0.0
2018-Feb-19 06:00N 29°49' W 093°60'0 0.0
2018-Feb-19 05:30N 29°49' W 093°60'0 0.0
2018-Feb-19 05:00N 29°49' W 093°60'0 0.0
2018-Feb-19 04:30N 29°49' W 093°60'0 0.0
2018-Feb-19 04:00N 29°49' W 093°60'0 0.0
2018-Feb-19 03:30N 29°49' W 093°60'0 0.0
2018-Feb-19 03:00N 29°49' W 093°60'0 0.0
2018-Feb-19 02:30N 29°49' W 093°60'0 0.0
2018-Feb-19 02:00N 29°49' W 093°60'0 0.0
2018-Feb-19 01:30N 29°49' W 093°60'0 0.0
2018-Feb-19 01:00N 29°49' W 093°60'0 0.0
2018-Feb-19 00:30N 29°49' W 093°60'1 2.4
2018-Feb-19 00:00N 29°49' W 093°58'3 6.9
2018-Feb-18 23:30N 29°52' W 093°56'4 7.4
2018-Feb-18 23:00N 29°55' W 093°53'3 6.8
2018-Feb-18 22:30N 29°58' W 093°51'1 1.2
2018-Feb-18 22:00N 29°58' W 093°51'0 0.0
2018-Feb-18 21:30N 29°58' W 093°51'0 0.1
2018-Feb-18 21:00N 29°58' W 093°51'0 0.2
2018-Feb-18 20:30N 29°58' W 093°51'2 4.8
2018-Feb-18 20:00N 29°59' W 093°48'3 5.3
2018-Feb-18 19:31N 30°01' W 093°46'0 0.1
2018-Feb-18 19:00N 30°01' W 093°46'1 1.4
2018-Feb-18 18:30N 30°01' W 093°45'3 5.1
2018-Feb-18 18:00N 30°03' W 093°43'2 4.6
2018-Feb-18 17:30N 30°04' W 093°41'3 4.6
2018-Feb-18 16:54N 30°04' W 093°38'2 4.6
2018-Feb-18 16:30N 30°04' W 093°35'2 4.6
2018-Feb-18 15:59N 30°04' W 093°33'2 4.0
2018-Feb-18 15:30N 30°04' W 093°30'2 4.9
2018-Feb-18 15:00N 30°04' W 093°28'2 4.2
2018-Feb-18 14:30N 30°04' W 093°25'2 4.6
2018-Feb-18 14:00N 30°04' W 093°23'2 3.2
2018-Feb-18 13:30N 30°04' W 093°21'2 4.0
2018-Feb-18 13:00N 30°06' W 093°19'1 1.5
2018-Feb-18 12:30N 30°06' W 093°19'0 0.0
2018-Feb-18 12:00N 30°06' W 093°19'0 0.0
2018-Feb-18 11:29N 30°06' W 093°19'0 0.0
2018-Feb-18 11:00N 30°06' W 093°19'0 0.0
2018-Feb-18 10:29N 30°06' W 093°19'0 0.0
2018-Feb-18 10:00N 30°06' W 093°19'0 0.0
2018-Feb-18 09:30N 30°06' W 093°19'1 1.9
2018-Feb-18 09:00N 30°06' W 093°18'1 1.3
2018-Feb-18 08:30N 30°05' W 093°17'1 2.3
2018-Feb-18 08:00N 30°04' W 093°16'0 0.8
2018-Feb-18 07:29N 30°04' W 093°16'0 0.0
2018-Feb-18 07:00N 30°04' W 093°16'1 1.3
2018-Feb-18 06:30N 30°03' W 093°16'0 0.0
2018-Feb-18 05:59N 30°03' W 093°16'1 1.3
2018-Feb-18 05:30N 30°03' W 093°16'2 3.4
2018-Feb-18 05:00N 30°02' W 093°14'1 1.3
2018-Feb-18 04:30N 30°01' W 093°14'1 2.6
2018-Feb-18 03:59N 29°60' W 093°13'2 4.0
2018-Feb-18 03:30N 29°59' W 093°12'2 4.1
2018-Feb-18 03:00N 29°57' W 093°10'2 3.7
2018-Feb-18 02:30N 29°56' W 093°09'41 3.8
2018-Feb-17 15:42N 29°51' W 092°22'1 3.2
2018-Feb-17 15:22N 29°51' W 092°20'1 2.1
2018-Feb-17 15:00N 29°50' W 092°20'0 0.0
2018-Feb-17 14:30N 29°50' W 092°20'0 0.0
2018-Feb-17 14:00N 29°50' W 092°20'0 0.0
2018-Feb-17 13:30N 29°50' W 092°20'0 0.0
2018-Feb-17 12:58N 29°50' W 092°20'0 0.0
2018-Feb-17 12:30N 29°50' W 092°20'0 0.0
2018-Feb-17 11:57N 29°50' W 092°20'0 0.0
2018-Feb-17 11:30N 29°50' W 092°20'0 0.0
2018-Feb-17 11:00N 29°50' W 092°20'0 0.0
2018-Feb-17 10:30N 29°50' W 092°20'0 0.0
2018-Feb-17 09:58N 29°50' W 092°20'0 0.0
2018-Feb-17 09:30N 29°50' W 092°20'0 0.1
2018-Feb-17 09:00N 29°50' W 092°19'0 0.1
2018-Feb-17 08:30N 29°50' W 092°19'0 0.0
2018-Feb-17 08:00N 29°50' W 092°19'0 0.0
2018-Feb-17 07:30N 29°50' W 092°19'0 0.0
2018-Feb-17 07:00N 29°50' W 092°19'0 0.0
2018-Feb-17 06:30N 29°50' W 092°19'1 1.2
2018-Feb-17 06:00N 29°50' W 092°19'2 2.8
2018-Feb-17 05:28N 29°49' W 092°18'1 2.8
2018-Feb-17 05:00N 29°49' W 092°16'1 3.0
2018-Feb-17 04:30N 29°48' W 092°15'1 2.8
2018-Feb-17 04:00N 29°48' W 092°13'1 2.8
2018-Feb-17 03:30N 29°47' W 092°12'1 1.2
2018-Feb-17 03:00N 29°47' W 092°11'1 1.7
2018-Feb-17 02:30N 29°47' W 092°10'2 4.2
2018-Feb-17 02:00N 29°47' W 092°08'2 4.3
2018-Feb-17 01:28N 29°48' W 092°05'2 4.4
2018-Feb-17 01:00N 29°49' W 092°03'2 4.8
2018-Feb-17 00:29N 29°50' W 092°01'  
Track history (hours):
 
Tides and Currents Weather Stations Pressure Air Temp Water Temp Dewpoint Dewpoint Depression Visibility Wind Speed Wind Dir Waves Ship Positions

Lake Charles

Owner: Canal Barge Company, Inc., Belle Chasse, LA. More information available from US FCC via Universal Licensing System and Coast Guard Vessel Documentation Center.

Last reported at 2018-Feb-21 06:07 UTC. Time now 2018-Feb-21 15:43 UTC.
Position N 29°24' W 094°45'.

Length 23 m; draft 3 m.

Type: Tow > 200 m length. MMSI: 367456860.

Date/timePositionNaut miles runAvg speedWind from/ knotsBaromVisibWave heightAir tempDewpointWater temp
2018-Feb-21 06:07N 29°24' W 094°45'0 0.0
2018-Feb-21 03:11N 29°24' W 094°45'0 0.0
2018-Feb-21 02:50N 29°24' W 094°45'16 1.3
2018-Feb-20 14:49N 29°33' W 094°28'0 0.0
2018-Feb-20 14:22N 29°33' W 094°28'0 0.0
2018-Feb-20 14:00N 29°33' W 094°28'0 0.0
2018-Feb-20 13:30N 29°33' W 094°28'0 0.0
2018-Feb-20 13:00N 29°33' W 094°28'0 0.0
2018-Feb-20 12:30N 29°33' W 094°28'0 0.0
2018-Feb-20 11:59N 29°33' W 094°28'0 0.0
2018-Feb-20 11:29N 29°33' W 094°28'0 0.0
2018-Feb-20 10:59N 29°33' W 094°28'0 0.0
2018-Feb-20 10:29N 29°33' W 094°28'0 0.0
2018-Feb-20 09:59N 29°33' W 094°28'0 0.0
2018-Feb-20 09:30N 29°33' W 094°28'0 0.0
2018-Feb-20 08:58N 29°33' W 094°28'0 0.0
2018-Feb-20 07:41N 29°33' W 094°28'0 0.0
2018-Feb-20 07:30N 29°33' W 094°28'0 0.0
2018-Feb-20 06:59N 29°33' W 094°28'0 0.0
2018-Feb-20 06:26N 29°33' W 094°28'0 0.0
2018-Feb-20 05:59N 29°33' W 094°28'0 0.0
2018-Feb-20 04:47N 29°33' W 094°28'0 0.0
2018-Feb-20 04:14N 29°33' W 094°29'0 0.0
2018-Feb-20 03:54N 29°33' W 094°29'0 0.0
2018-Feb-20 03:28N 29°33' W 094°29'0 0.0
2018-Feb-19 23:17N 29°33' W 094°29'0 0.0
2018-Feb-19 22:36N 29°33' W 094°29'0 0.0
2018-Feb-19 22:20N 29°33' W 094°29'0 0.0
2018-Feb-19 21:58N 29°33' W 094°29'3 2.9
2018-Feb-19 20:46N 29°34' W 094°25'2 5.1
2018-Feb-19 20:18N 29°36' W 094°23'0 1.0
2018-Feb-19 20:00N 29°36' W 094°23'0 0.0
2018-Feb-19 19:30N 29°36' W 094°23'0 0.0
2018-Feb-19 19:00N 29°36' W 094°23'1 2.6
2018-Feb-19 18:25N 29°37' W 094°21'0 0.0
2018-Feb-19 17:10N 29°37' W 094°21'0 0.0
2018-Feb-19 16:54N 29°37' W 094°21'0 0.1
2018-Feb-19 16:22N 29°37' W 094°21'2 5.7
2018-Feb-19 16:00N 29°38' W 094°19'3 6.8
2018-Feb-19 15:30N 29°39' W 094°16'3 6.5
2018-Feb-19 15:00N 29°41' W 094°12'4 7.2
2018-Feb-19 14:30N 29°42' W 094°08'0 0.1
2018-Feb-19 14:00N 29°42' W 094°08'3 6.5
2018-Feb-19 13:30N 29°44' W 094°06'4 7.4
2018-Feb-19 13:00N 29°46' W 094°02'3 6.4
2018-Feb-19 12:30N 29°49' W 093°60'0 0.0
2018-Feb-19 12:00N 29°49' W 093°60'0 0.0
2018-Feb-19 11:30N 29°49' W 093°60'0 0.0
2018-Feb-19 11:00N 29°49' W 093°60'0 0.0
2018-Feb-19 10:30N 29°49' W 093°60'0 0.0
2018-Feb-19 10:00N 29°49' W 093°60'0 0.0
2018-Feb-19 09:29N 29°49' W 093°60'0 0.0
2018-Feb-19 09:00N 29°49' W 093°60'0 0.0
2018-Feb-19 08:30N 29°49' W 093°60'0 0.0
2018-Feb-19 08:00N 29°49' W 093°60'0 0.0
2018-Feb-19 07:30N 29°49' W 093°60'0 0.0
2018-Feb-19 07:00N 29°49' W 093°60'0 0.0
2018-Feb-19 06:28N 29°49' W 093°60'0 0.0
2018-Feb-19 06:00N 29°49' W 093°60'0 0.0
2018-Feb-19 05:30N 29°49' W 093°60'0 0.0
2018-Feb-19 05:00N 29°49' W 093°60'0 0.0
2018-Feb-19 04:30N 29°49' W 093°60'0 0.0
2018-Feb-19 04:00N 29°49' W 093°60'0 0.0
2018-Feb-19 03:30N 29°49' W 093°60'0 0.0
2018-Feb-19 03:00N 29°49' W 093°60'0 0.0
2018-Feb-19 02:30N 29°49' W 093°60'0 0.0
2018-Feb-19 02:00N 29°49' W 093°60'0 0.0
2018-Feb-19 01:30N 29°49' W 093°60'0 0.0
2018-Feb-19 01:00N 29°49' W 093°60'0 0.0
2018-Feb-19 00:30N 29°49' W 093°60'1 2.4
2018-Feb-19 00:00N 29°49' W 093°58'3 6.9
2018-Feb-18 23:30N 29°52' W 093°56'4 7.4
2018-Feb-18 23:00N 29°55' W 093°53'3 6.8
2018-Feb-18 22:30N 29°58' W 093°51'1 1.2
2018-Feb-18 22:00N 29°58' W 093°51'0 0.0
2018-Feb-18 21:30N 29°58' W 093°51'0 0.1
2018-Feb-18 21:00N 29°58' W 093°51'0 0.2
2018-Feb-18 20:30N 29°58' W 093°51'2 4.8
2018-Feb-18 20:00N 29°59' W 093°48'3 5.3
2018-Feb-18 19:31N 30°01' W 093°46'0 0.1
2018-Feb-18 19:00N 30°01' W 093°46'1 1.4
2018-Feb-18 18:30N 30°01' W 093°45'3 5.1
2018-Feb-18 18:00N 30°03' W 093°43'2 4.6
2018-Feb-18 17:30N 30°04' W 093°41'3 4.6
2018-Feb-18 16:54N 30°04' W 093°38'2 4.6
2018-Feb-18 16:30N 30°04' W 093°35'2 4.6
2018-Feb-18 15:59N 30°04' W 093°33'2 4.0
2018-Feb-18 15:30N 30°04' W 093°30'2 4.9
2018-Feb-18 15:00N 30°04' W 093°28'2 4.2
2018-Feb-18 14:30N 30°04' W 093°25'2 4.6
2018-Feb-18 14:00N 30°04' W 093°23'2 3.2
2018-Feb-18 13:30N 30°04' W 093°21'2 4.0
2018-Feb-18 13:00N 30°06' W 093°19'1 1.5
2018-Feb-18 12:30N 30°06' W 093°19'0 0.0
2018-Feb-18 12:00N 30°06' W 093°19'0 0.0
2018-Feb-18 11:29N 30°06' W 093°19'0 0.0
2018-Feb-18 11:00N 30°06' W 093°19'0 0.0
2018-Feb-18 10:29N 30°06' W 093°19'0 0.0
2018-Feb-18 10:00N 30°06' W 093°19'0 0.0
2018-Feb-18 09:30N 30°06' W 093°19'1 1.9
2018-Feb-18 09:00N 30°06' W 093°18'1 1.3
2018-Feb-18 08:30N 30°05' W 093°17'1 2.3
2018-Feb-18 08:00N 30°04' W 093°16'0 0.8
2018-Feb-18 07:29N 30°04' W 093°16'0 0.0
2018-Feb-18 07:00N 30°04' W 093°16'1 1.3
2018-Feb-18 06:30N 30°03' W 093°16'0 0.0
2018-Feb-18 05:59N 30°03' W 093°16'1 1.3
2018-Feb-18 05:30N 30°03' W 093°16'2 3.4
2018-Feb-18 05:00N 30°02' W 093°14'1 1.3
2018-Feb-18 04:30N 30°01' W 093°14'1 2.6
2018-Feb-18 03:59N 29°60' W 093°13'2 4.0
2018-Feb-18 03:30N 29°59' W 093°12'2 4.1
2018-Feb-18 03:00N 29°57' W 093°10'2 3.7
2018-Feb-18 02:30N 29°56' W 093°09'41 3.8
2018-Feb-17 15:42N 29°51' W 092°22'1 3.2
2018-Feb-17 15:22N 29°51' W 092°20'1 2.1
2018-Feb-17 15:00N 29°50' W 092°20'0 0.0
2018-Feb-17 14:30N 29°50' W 092°20'0 0.0
2018-Feb-17 14:00N 29°50' W 092°20'0 0.0
2018-Feb-17 13:30N 29°50' W 092°20'0 0.0
2018-Feb-17 12:58N 29°50' W 092°20'0 0.0
2018-Feb-17 12:30N 29°50' W 092°20'0 0.0
2018-Feb-17 11:57N 29°50' W 092°20'0 0.0
2018-Feb-17 11:30N 29°50' W 092°20'0 0.0
2018-Feb-17 11:00N 29°50' W 092°20'0 0.0
2018-Feb-17 10:30N 29°50' W 092°20'0 0.0
2018-Feb-17 09:58N 29°50' W 092°20'0 0.0
2018-Feb-17 09:30N 29°50' W 092°20'0 0.1
2018-Feb-17 09:00N 29°50' W 092°19'0 0.1
2018-Feb-17 08:30N 29°50' W 092°19'0 0.0
2018-Feb-17 08:00N 29°50' W 092°19'0 0.0
2018-Feb-17 07:30N 29°50' W 092°19'0 0.0
2018-Feb-17 07:00N 29°50' W 092°19'0 0.0
2018-Feb-17 06:30N 29°50' W 092°19'1 1.2
2018-Feb-17 06:00N 29°50' W 092°19'2 2.8
2018-Feb-17 05:28N 29°49' W 092°18'1 2.8
2018-Feb-17 05:00N 29°49' W 092°16'1 3.0
2018-Feb-17 04:30N 29°48' W 092°15'1 2.8
2018-Feb-17 04:00N 29°48' W 092°13'1 2.8
2018-Feb-17 03:30N 29°47' W 092°12'1 1.2
2018-Feb-17 03:00N 29°47' W 092°11'1 1.7
2018-Feb-17 02:30N 29°47' W 092°10'2 4.2
2018-Feb-17 02:00N 29°47' W 092°08'2 4.3
2018-Feb-17 01:28N 29°48' W 092°05'2 4.4
2018-Feb-17 01:00N 29°49' W 092°03'2 4.8
2018-Feb-17 00:29N 29°50' W 092°01'  

Dump ship's entire track history